Terminal Aerodrome Forecast
Issued by NWS Milwaukee/Sullivan, WI

Home | Current Version | Previous Version | Text Only | Print | Product List | Glossary On
Versions: 1 2 3 4 5 6 7 8 9 10 11 12 13 14 15 16 17 18 19 20 21 22 23 24 25 26 27 28 29 30 31 32 33 34 35 36 37 38 39 40 41
000
FTUS43 KMKX 281722
TAFMSN
TAF
KMSN 281722Z 2818/2918 19005KT P6SM -RA OVC080
     FM282000 16005KT 6SM -SHRA OVC070
     FM282300 10005KT 6SM -SHRA OVC060
     FM290000 10006KT 5SM SHRA OVC050
     FM290300 12008KT 5SM SHRA BR OVC030
     FM290400 12008KT 3SM SHRA BR OVC012
     FM291200 15005KT 3SM BR VCSH OVC008
     FM291700 07005KT 6SM BR OVC015=

USA.gov is the U.S. government's official web portal to all federal, state and local government web resources and services.